sensor_id;sensor_type;location;lat;lon;timestamp;pressure;altitude;pressure_sealevel;temperature
34125;BMP280;20110;53.120;5.786;2023-05-23T00:00:41;101828.78;;;19.97
34125;BMP280;20110;53.120;5.786;2023-05-23T00:03:07;101809.47;;;19.91
34125;BMP280;20110;53.120;5.786;2023-05-23T00:05:33;101877.56;;;20.33
34125;BMP280;20110;53.120;5.786;2023-05-23T00:08:00;101864.94;;;20.19
34125;BMP280;20110;53.120;5.786;2023-05-23T00:10:26;101789.91;;;19.65
34125;BMP280;20110;53.120;5.786;2023-05-23T00:12:52;101874.13;;;20.16
34125;BMP280;20110;53.120;5.786;2023-05-23T00:15:18;101904.13;;;20.37
34125;BMP280;20110;53.120;5.786;2023-05-23T00:17:44;101821.25;;;19.78
34125;BMP280;20110;53.120;5.786;2023-05-23T00:20:11;101899.53;;;20.30
34125;BMP280;20110;53.120;5.786;2023-05-23T00:22:38;101898.66;;;20.27
34125;BMP280;20110;53.120;5.786;2023-05-23T00:25:10;101878.97;;;20.17
34125;BMP280;20110;53.120;5.786;2023-05-23T00:27:36;101887.94;;;20.20
34125;BMP280;20110;53.120;5.786;2023-05-23T00:30:03;101876.25;;;20.17
34125;BMP280;20110;53.120;5.786;2023-05-23T00:32:29;101858.13;;;19.93
34125;BMP280;20110;53.120;5.786;2023-05-23T00:34:55;101876.41;;;20.02
34125;BMP280;20110;53.120;5.786;2023-05-23T00:37:22;101824.56;;;19.69
34125;BMP280;20110;53.120;5.786;2023-05-23T00:39:48;101865.50;;;19.92
34125;BMP280;20110;53.120;5.786;2023-05-23T00:42:14;101896.09;;;20.12
34125;BMP280;20110;53.120;5.786;2023-05-23T00:44:40;101894.50;;;20.09
34125;BMP280;20110;53.120;5.786;2023-05-23T00:47:06;101905.22;;;20.17
34125;BMP280;20110;53.120;5.786;2023-05-23T00:49:33;101861.09;;;19.87
34125;BMP280;20110;53.120;5.786;2023-05-23T00:51:59;101910.94;;;20.21
34125;BMP280;20110;53.120;5.786;2023-05-23T00:54:28;101895.69;;;19.98
34125;BMP280;20110;53.120;5.786;2023-05-23T00:56:57;101872.94;;;19.84
34125;BMP280;20110;53.120;5.786;2023-05-23T00:59:25;101912.28;;;20.12
34125;BMP280;20110;53.120;5.786;2023-05-23T01:01:53;101920.94;;;20.10
34125;BMP280;20110;53.120;5.786;2023-05-23T01:04:20;101906.78;;;20.02
34125;BMP280;20110;53.120;5.786;2023-05-23T01:06:53;101908.91;;;20.04
34125;BMP280;20110;53.120;5.786;2023-05-23T01:09:20;101926.69;;;20.07
34125;BMP280;20110;53.120;5.786;2023-05-23T01:12:23;101931.91;;;20.05
34125;BMP280;20110;53.120;5.786;2023-05-23T01:15:10;101923.56;;;19.93
34125;BMP280;20110;53.120;5.786;2023-05-23T01:20:45;101928.91;;;20.01
34125;BMP280;20110;53.120;5.786;2023-05-23T01:26:25;101912.69;;;19.84
34125;BMP280;20110;53.120;5.786;2023-05-23T01:29:06;101897.81;;;19.75
34125;BMP280;20110;53.120;5.786;2023-05-23T01:31:41;101937.72;;;20.01
34125;BMP280;20110;53.120;5.786;2023-05-23T01:34:09;101940.91;;;20.07
34125;BMP280;20110;53.120;5.786;2023-05-23T01:36:43;101946.13;;;20.05
34125;BMP280;20110;53.120;5.786;2023-05-23T01:39:10;101952.38;;;20.08
34125;BMP280;20110;53.120;5.786;2023-05-23T01:41:36;101931.44;;;19.99
34125;BMP280;20110;53.120;5.786;2023-05-23T01:44:03;101940.97;;;20.00
34125;BMP280;20110;53.120;5.786;2023-05-23T01:46:31;101937.22;;;19.95
34125;BMP280;20110;53.120;5.786;2023-05-23T01:49:00;101904.69;;;19.68
34125;BMP280;20110;53.120;5.786;2023-05-23T01:51:28;101927.56;;;19.85
34125;BMP280;20110;53.120;5.786;2023-05-23T01:53:56;101940.13;;;19.90
34125;BMP280;20110;53.120;5.786;2023-05-23T01:56:22;101925.44;;;19.83
34125;BMP280;20110;53.120;5.786;2023-05-23T01:58:49;101877.91;;;19.46
34125;BMP280;20110;53.120;5.786;2023-05-23T02:01:15;101925.66;;;19.78
34125;BMP280;20110;53.120;5.786;2023-05-23T02:03:41;101938.03;;;19.81
34125;BMP280;20110;53.120;5.786;2023-05-23T02:06:07;101947.38;;;19.87
34125;BMP280;20110;53.120;5.786;2023-05-23T02:08:33;101972.28;;;19.95
34125;BMP280;20110;53.120;5.786;2023-05-23T02:10:58;101911.28;;;19.50
34125;BMP280;20110;53.120;5.786;2023-05-23T02:13:24;101975.19;;;19.90
34125;BMP280;20110;53.120;5.786;2023-05-23T02:15:50;101969.66;;;19.88
34125;BMP280;20110;53.120;5.786;2023-05-23T02:18:16;101983.06;;;19.95
34125;BMP280;20110;53.120;5.786;2023-05-23T02:20:42;101986.16;;;19.84
34125;BMP280;20110;53.120;5.786;2023-05-23T02:23:08;101994.25;;;19.84
34125;BMP280;20110;53.120;5.786;2023-05-23T02:25:34;101991.94;;;19.81
34125;BMP280;20110;53.120;5.786;2023-05-23T02:28:00;101993.63;;;19.76
34125;BMP280;20110;53.120;5.786;2023-05-23T02:30:26;101996.50;;;19.70
34125;BMP280;20110;53.120;5.786;2023-05-23T02:32:53;101989.66;;;19.69
34125;BMP280;20110;53.120;5.786;2023-05-23T02:35:19;101975.38;;;19.59
34125;BMP280;20110;53.120;5.786;2023-05-23T02:37:45;101907.16;;;19.09
34125;BMP280;20110;53.120;5.786;2023-05-23T02:40:11;101963.03;;;19.41
34125;BMP280;20110;53.120;5.786;2023-05-23T02:42:37;102008.38;;;19.67
34125;BMP280;20110;53.120;5.786;2023-05-23T02:45:03;101912.91;;;19.06
34125;BMP280;20110;53.120;5.786;2023-05-23T02:47:29;102000.34;;;19.60
34125;BMP280;20110;53.120;5.786;2023-05-23T02:49:55;101992.44;;;19.54
34125;BMP280;20110;53.120;5.786;2023-05-23T02:52:21;101967.56;;;19.39
34125;BMP280;20110;53.120;5.786;2023-05-23T02:54:47;102014.50;;;19.68
34125;BMP280;20110;53.120;5.786;2023-05-23T02:57:13;102009.78;;;19.68
34125;BMP280;20110;53.120;5.786;2023-05-23T02:59:38;101979.34;;;19.51
34125;BMP280;20110;53.120;5.786;2023-05-23T03:02:04;102015.53;;;19.73
34125;BMP280;20110;53.120;5.786;2023-05-23T03:04:30;101974.19;;;19.38
34125;BMP280;20110;53.120;5.786;2023-05-23T03:06:56;101933.19;;;19.14
34125;BMP280;20110;53.120;5.786;2023-05-23T03:09:24;101963.50;;;19.22
34125;BMP280;20110;53.120;5.786;2023-05-23T03:11:50;101990.91;;;19.36
34125;BMP280;20110;53.120;5.786;2023-05-23T03:14:16;101978.16;;;19.29
34125;BMP280;20110;53.120;5.786;2023-05-23T03:16:41;101968.53;;;19.18
34125;BMP280;20110;53.120;5.786;2023-05-23T03:19:07;101973.00;;;19.23
34125;BMP280;20110;53.120;5.786;2023-05-23T03:21:33;102023.53;;;19.55
34125;BMP280;20110;53.120;5.786;2023-05-23T03:24:00;102021.72;;;19.58
34125;BMP280;20110;53.120;5.786;2023-05-23T03:26:26;102034.09;;;19.61
34125;BMP280;20110;53.120;5.786;2023-05-23T03:28:51;101988.06;;;19.26
34125;BMP280;20110;53.120;5.786;2023-05-23T03:31:17;102019.91;;;19.53
34125;BMP280;20110;53.120;5.786;2023-05-23T03:33:43;101992.91;;;19.28
34125;BMP280;20110;53.120;5.786;2023-05-23T03:36:09;102013.19;;;19.29
34125;BMP280;20110;53.120;5.786;2023-05-23T03:38:34;102023.94;;;19.37
34125;BMP280;20110;53.120;5.786;2023-05-23T03:41:00;102035.59;;;19.47
34125;BMP280;20110;53.120;5.786;2023-05-23T03:43:26;102010.50;;;19.29
34125;BMP280;20110;53.120;5.786;2023-05-23T03:45:52;102001.75;;;19.13
34125;BMP280;20110;53.120;5.786;2023-05-23T03:48:18;102015.22;;;19.13
34125;BMP280;20110;53.120;5.786;2023-05-23T03:50:43;102031.00;;;19.09
34125;BMP280;20110;53.120;5.786;2023-05-23T03:53:09;102050.00;;;19.26
34125;BMP280;20110;53.120;5.786;2023-05-23T03:55:35;102022.59;;;18.98
34125;BMP280;20110;53.120;5.786;2023-05-23T03:58:01;101955.72;;;18.56
34125;BMP280;20110;53.120;5.786;2023-05-23T04:00:27;102053.44;;;19.19
34125;BMP280;20110;53.120;5.786;2023-05-23T04:02:52;102042.31;;;19.00
34125;BMP280;20110;53.120;5.786;2023-05-23T04:05:18;102004.16;;;18.71
34125;BMP280;20110;53.120;5.786;2023-05-23T04:07:45;102019.22;;;18.82
34125;BMP280;20110;53.120;5.786;2023-05-23T04:10:11;102039.28;;;18.88
34125;BMP280;20110;53.120;5.786;2023-05-23T04:12:37;102043.78;;;18.94
34125;BMP280;20110;53.120;5.786;2023-05-23T04:15:07;102042.72;;;18.81
34125;BMP280;20110;53.120;5.786;2023-05-23T04:17:33;102072.69;;;19.01
34125;BMP280;20110;53.120;5.786;2023-05-23T04:19:59;102048.28;;;18.76
34125;BMP280;20110;53.120;5.786;2023-05-23T04:22:25;102041.44;;;18.67
34125;BMP280;20110;53.120;5.786;2023-05-23T04:24:51;102072.31;;;18.89
34125;BMP280;20110;53.120;5.786;2023-05-23T04:27:17;102065.50;;;18.73
34125;BMP280;20110;53.120;5.786;2023-05-23T04:29:43;102098.00;;;18.90
34125;BMP280;20110;53.120;5.786;2023-05-23T04:32:11;102061.34;;;18.57
34125;BMP280;20110;53.120;5.786;2023-05-23T04:34:38;102091.19;;;18.81
34125;BMP280;20110;53.120;5.786;2023-05-23T04:37:05;102091.91;;;18.82
34125;BMP280;20110;53.120;5.786;2023-05-23T04:39:31;102062.78;;;18.50
34125;BMP280;20110;53.120;5.786;2023-05-23T04:41:57;102051.66;;;18.38
34125;BMP280;20110;53.120;5.786;2023-05-23T04:44:24;102070.31;;;18.44
34125;BMP280;20110;53.120;5.786;2023-05-23T04:46:51;102031.72;;;18.19
34125;BMP280;20110;53.120;5.786;2023-05-23T04:49:17;102117.00;;;18.62
34125;BMP280;20110;53.120;5.786;2023-05-23T04:51:43;102124.88;;;18.60
34125;BMP280;20110;53.120;5.786;2023-05-23T04:54:09;102081.94;;;18.31
34125;BMP280;20110;53.120;5.786;2023-05-23T04:56:35;102097.53;;;18.33
34125;BMP280;20110;53.120;5.786;2023-05-23T04:59:01;102129.16;;;18.63
34125;BMP280;20110;53.120;5.786;2023-05-23T05:01:27;102083.22;;;18.38
34125;BMP280;20110;53.120;5.786;2023-05-23T05:03:52;102137.09;;;18.61
34125;BMP280;20110;53.120;5.786;2023-05-23T05:06:18;102150.38;;;18.74
34125;BMP280;20110;53.120;5.786;2023-05-23T05:08:45;102115.00;;;18.47
34125;BMP280;20110;53.120;5.786;2023-05-23T05:11:12;102146.22;;;18.65
34125;BMP280;20110;53.120;5.786;2023-05-23T05:13:37;102132.03;;;18.49
34125;BMP280;20110;53.120;5.786;2023-05-23T05:16:03;102138.66;;;18.48
34125;BMP280;20110;53.120;5.786;2023-05-23T05:18:30;102128.22;;;18.37
34125;BMP280;20110;53.120;5.786;2023-05-23T05:20:55;102147.66;;;18.59
34125;BMP280;20110;53.120;5.786;2023-05-23T05:23:25;102148.72;;;18.56
34125;BMP280;20110;53.120;5.786;2023-05-23T05:25:53;102148.72;;;18.63
34125;BMP280;20110;53.120;5.786;2023-05-23T05:28:21;102161.81;;;18.67
34125;BMP280;20110;53.120;5.786;2023-05-23T05:30:47;102148.53;;;18.54
34125;BMP280;20110;53.120;5.786;2023-05-23T05:33:13;102170.22;;;18.56
34125;BMP280;20110;53.120;5.786;2023-05-23T05:35:39;102183.91;;;18.65
34125;BMP280;20110;53.120;5.786;2023-05-23T05:38:05;102134.16;;;18.36
34125;BMP280;20110;53.120;5.786;2023-05-23T05:40:33;102141.88;;;18.39
34125;BMP280;20110;53.120;5.786;2023-05-23T05:42:58;102186.97;;;18.69
34125;BMP280;20110;53.120;5.786;2023-05-23T05:45:25;102137.22;;;18.40
34125;BMP280;20110;53.120;5.786;2023-05-23T05:47:51;102185.38;;;18.81
34125;BMP280;20110;53.120;5.786;2023-05-23T05:50:17;102188.00;;;18.59
34125;BMP280;20110;53.120;5.786;2023-05-23T05:52:45;102178.06;;;18.31
34125;BMP280;20110;53.120;5.786;2023-05-23T05:55:11;102176.25;;;18.33
34125;BMP280;20110;53.120;5.786;2023-05-23T05:57:40;102204.69;;;18.65
34125;BMP280;20110;53.120;5.786;2023-05-23T06:00:11;102175.44;;;18.54
34125;BMP280;20110;53.120;5.786;2023-05-23T06:02:42;102206.56;;;18.93
34125;BMP280;20110;53.120;5.786;2023-05-23T06:05:12;102213.91;;;18.92
34125;BMP280;20110;53.120;5.786;2023-05-23T06:07:44;102235.34;;;19.36
34125;BMP280;20110;53.120;5.786;2023-05-23T06:10:10;102169.28;;;19.12
34125;BMP280;20110;53.120;5.786;2023-05-23T06:12:39;102226.31;;;19.63
34125;BMP280;20110;53.120;5.786;2023-05-23T06:15:06;102243.75;;;19.70
34125;BMP280;20110;53.120;5.786;2023-05-23T06:17:32;102259.94;;;19.70
34125;BMP280;20110;53.120;5.786;2023-05-23T06:19:57;102240.28;;;19.85
34125;BMP280;20110;53.120;5.786;2023-05-23T06:22:23;102213.56;;;19.64
34125;BMP280;20110;53.120;5.786;2023-05-23T06:24:49;102215.53;;;19.79
34125;BMP280;20110;53.120;5.786;2023-05-23T06:27:15;102216.25;;;19.79
34125;BMP280;20110;53.120;5.786;2023-05-23T06:29:41;102198.47;;;19.76
34125;BMP280;20110;53.120;5.786;2023-05-23T06:32:07;102247.22;;;20.18
34125;BMP280;20110;53.120;5.786;2023-05-23T06:34:32;102239.00;;;20.08
34125;BMP280;20110;53.120;5.786;2023-05-23T06:36:58;102250.53;;;20.01
34125;BMP280;20110;53.120;5.786;2023-05-23T06:39:24;102174.97;;;19.39
34125;BMP280;20110;53.120;5.786;2023-05-23T06:41:50;102239.91;;;20.03
34125;BMP280;20110;53.120;5.786;2023-05-23T06:44:16;102261.81;;;20.23
34125;BMP280;20110;53.120;5.786;2023-05-23T06:46:44;102253.31;;;20.34
34125;BMP280;20110;53.120;5.786;2023-05-23T06:49:12;102259.00;;;20.45
34125;BMP280;20110;53.120;5.786;2023-05-23T06:51:38;102215.97;;;20.07
34125;BMP280;20110;53.120;5.786;2023-05-23T06:54:04;102263.94;;;20.24
34125;BMP280;20110;53.120;5.786;2023-05-23T06:56:30;102255.13;;;20.16
34125;BMP280;20110;53.120;5.786;2023-05-23T06:58:57;102254.81;;;20.04
34125;BMP280;20110;53.120;5.786;2023-05-23T07:01:23;102267.75;;;20.06
34125;BMP280;20110;53.120;5.786;2023-05-23T07:03:49;102256.25;;;20.05
34125;BMP280;20110;53.120;5.786;2023-05-23T07:06:15;102245.31;;;20.03
34125;BMP280;20110;53.120;5.786;2023-05-23T07:08:41;102250.00;;;20.03
34125;BMP280;20110;53.120;5.786;2023-05-23T07:11:06;102258.22;;;20.13
34125;BMP280;20110;53.120;5.786;2023-05-23T07:13:32;102286.41;;;20.34
34125;BMP280;20110;53.120;5.786;2023-05-23T07:15:58;102273.22;;;20.46
34125;BMP280;20110;53.120;5.786;2023-05-23T07:18:24;102268.50;;;20.54
34125;BMP280;20110;53.120;5.786;2023-05-23T07:20:50;102283.91;;;20.93
34125;BMP280;20110;53.120;5.786;2023-05-23T07:23:16;102262.72;;;20.90
34125;BMP280;20110;53.120;5.786;2023-05-23T07:25:42;102296.22;;;21.12
34125;BMP280;20110;53.120;5.786;2023-05-23T07:28:09;102251.38;;;20.91
34125;BMP280;20110;53.120;5.786;2023-05-23T07:30:35;102289.34;;;21.18
34125;BMP280;20110;53.120;5.786;2023-05-23T07:33:01;102260.34;;;20.94
34125;BMP280;20110;53.120;5.786;2023-05-23T07:35:27;102246.22;;;20.78
34125;BMP280;20110;53.120;5.786;2023-05-23T07:37:53;102271.19;;;20.86
34125;BMP280;20110;53.120;5.786;2023-05-23T07:40:20;102279.13;;;20.84
34125;BMP280;20110;53.120;5.786;2023-05-23T07:42:46;102287.09;;;21.07
34125;BMP280;20110;53.120;5.786;2023-05-23T07:45:12;102296.47;;;21.48
34125;BMP280;20110;53.120;5.786;2023-05-23T07:47:39;102293.50;;;21.78
34125;BMP280;20110;53.120;5.786;2023-05-23T07:50:05;102279.06;;;21.59
34125;BMP280;20110;53.120;5.786;2023-05-23T07:52:31;102260.06;;;21.32
34125;BMP280;20110;53.120;5.786;2023-05-23T07:54:58;102250.88;;;21.10
34125;BMP280;20110;53.120;5.786;2023-05-23T07:57:25;102316.16;;;21.24
34125;BMP280;20110;53.120;5.786;2023-05-23T07:59:52;102289.47;;;21.28
34125;BMP280;20110;53.120;5.786;2023-05-23T08:02:19;102312.44;;;21.61
34125;BMP280;20110;53.120;5.786;2023-05-23T08:04:47;102297.72;;;21.89
34125;BMP280;20110;53.120;5.786;2023-05-23T08:07:12;102306.84;;;22.28
34125;BMP280;20110;53.120;5.786;2023-05-23T08:09:39;102252.22;;;21.95
34125;BMP280;20110;53.120;5.786;2023-05-23T08:12:06;102315.97;;;22.50
34125;BMP280;20110;53.120;5.786;2023-05-23T08:14:32;102302.56;;;22.25
34125;BMP280;20110;53.120;5.786;2023-05-23T08:16:58;102306.19;;;21.93
34125;BMP280;20110;53.120;5.786;2023-05-23T08:19:24;102319.28;;;21.97
34125;BMP280;20110;53.120;5.786;2023-05-23T08:21:50;102291.69;;;22.15
34125;BMP280;20110;53.120;5.786;2023-05-23T08:24:19;102315.19;;;22.67
34125;BMP280;20110;53.120;5.786;2023-05-23T08:26:45;102293.41;;;22.74
34125;BMP280;20110;53.120;5.786;2023-05-23T08:29:11;102318.03;;;22.95
34125;BMP280;20110;53.120;5.786;2023-05-23T08:31:37;102323.91;;;23.01
34125;BMP280;20110;53.120;5.786;2023-05-23T08:34:03;102312.72;;;22.88
34125;BMP280;20110;53.120;5.786;2023-05-23T08:36:29;102320.56;;;22.57
34125;BMP280;20110;53.120;5.786;2023-05-23T08:39:01;102332.72;;;22.22
34125;BMP280;20110;53.120;5.786;2023-05-23T08:41:29;102322.06;;;22.06
34125;BMP280;20110;53.120;5.786;2023-05-23T08:43:58;102240.72;;;21.60
34125;BMP280;20110;53.120;5.786;2023-05-23T08:46:24;102297.16;;;22.25
34125;BMP280;20110;53.120;5.786;2023-05-23T08:48:52;102326.22;;;22.69
34125;BMP280;20110;53.120;5.786;2023-05-23T08:51:22;102329.56;;;22.59
34125;BMP280;20110;53.120;5.786;2023-05-23T08:53:49;102302.94;;;22.22
34125;BMP280;20110;53.120;5.786;2023-05-23T08:56:15;102291.28;;;22.19
34125;BMP280;20110;53.120;5.786;2023-05-23T08:58:42;102356.22;;;22.36
34125;BMP280;20110;53.120;5.786;2023-05-23T09:01:09;102325.34;;;22.05
34125;BMP280;20110;53.120;5.786;2023-05-23T09:03:40;102351.59;;;22.29
34125;BMP280;20110;53.120;5.786;2023-05-23T09:06:09;102338.91;;;22.49
34125;BMP280;20110;53.120;5.786;2023-05-23T09:08:36;102367.59;;;22.79
34125;BMP280;20110;53.120;5.786;2023-05-23T09:11:04;102344.56;;;22.97
34125;BMP280;20110;53.120;5.786;2023-05-23T09:13:32;102353.97;;;22.96
34125;BMP280;20110;53.120;5.786;2023-05-23T09:18:45;102340.81;;;22.83
34125;BMP280;20110;53.120;5.786;2023-05-23T09:21:12;102367.06;;;23.26
34125;BMP280;20110;53.120;5.786;2023-05-23T09:23:40;102387.34;;;23.35
34125;BMP280;20110;53.120;5.786;2023-05-23T09:26:08;102356.75;;;23.15
34125;BMP280;20110;53.120;5.786;2023-05-23T09:28:37;102382.31;;;23.22
34125;BMP280;20110;53.120;5.786;2023-05-23T09:31:06;102381.03;;;23.23
34125;BMP280;20110;53.120;5.786;2023-05-23T09:33:46;102335.16;;;22.98
34125;BMP280;20110;53.120;5.786;2023-05-23T09:36:18;102294.94;;;23.04
34125;BMP280;20110;53.120;5.786;2023-05-23T09:38:46;102386.47;;;23.78
34125;BMP280;20110;53.120;5.786;2023-05-23T09:41:13;102390.44;;;24.06
34125;BMP280;20110;53.120;5.786;2023-05-23T09:43:52;102336.00;;;23.75
34125;BMP280;20110;53.120;5.786;2023-05-23T09:46:20;102345.47;;;23.65
34125;BMP280;20110;53.120;5.786;2023-05-23T09:48:50;102382.59;;;23.72
34125;BMP280;20110;53.120;5.786;2023-05-23T09:51:19;102365.53;;;23.42
34125;BMP280;20110;53.120;5.786;2023-05-23T09:53:46;102384.16;;;23.19
34125;BMP280;20110;53.120;5.786;2023-05-23T09:56:15;102380.72;;;23.19
34125;BMP280;20110;53.120;5.786;2023-05-23T09:58:47;102389.69;;;23.48
34125;BMP280;20110;53.120;5.786;2023-05-23T10:01:14;102388.03;;;23.72
34125;BMP280;20110;53.120;5.786;2023-05-23T10:03:51;102393.44;;;23.72
34125;BMP280;20110;53.120;5.786;2023-05-23T10:06:25;102386.16;;;23.74
34125;BMP280;20110;53.120;5.786;2023-05-23T10:09:05;102387.59;;;23.95
34125;BMP280;20110;53.120;5.786;2023-05-23T10:14:09;102384.72;;;24.02
34125;BMP280;20110;53.120;5.786;2023-05-23T10:17:06;102416.75;;;24.13
34125;BMP280;20110;53.120;5.786;2023-05-23T10:20:13;102378.03;;;24.22
34125;BMP280;20110;53.120;5.786;2023-05-23T10:22:42;102359.59;;;23.82
34125;BMP280;20110;53.120;5.786;2023-05-23T10:25:08;102399.31;;;23.68
34125;BMP280;20110;53.120;5.786;2023-05-23T10:27:39;102373.13;;;23.54
34125;BMP280;20110;53.120;5.786;2023-05-23T10:30:07;102364.00;;;24.26
34125;BMP280;20110;53.120;5.786;2023-05-23T10:32:34;102396.91;;;24.70
34125;BMP280;20110;53.120;5.786;2023-05-23T10:35:20;102398.28;;;24.50
34125;BMP280;20110;53.120;5.786;2023-05-23T10:38:23;102414.25;;;24.65
34125;BMP280;20110;53.120;5.786;2023-05-23T10:40:56;102422.31;;;24.44
34125;BMP280;20110;53.120;5.786;2023-05-23T10:43:56;102414.75;;;25.23
34125;BMP280;20110;53.120;5.786;2023-05-23T10:46:52;102419.50;;;25.13
34125;BMP280;20110;53.120;5.786;2023-05-23T10:49:19;102381.84;;;24.38
34125;BMP280;20110;53.120;5.786;2023-05-23T10:51:49;102416.63;;;24.21
34125;BMP280;20110;53.120;5.786;2023-05-23T10:54:18;102396.53;;;24.64
34125;BMP280;20110;53.120;5.786;2023-05-23T10:57:02;102390.53;;;24.56
34125;BMP280;20110;53.120;5.786;2023-05-23T10:59:28;102349.28;;;23.52
34125;BMP280;20110;53.120;5.786;2023-05-23T11:01:55;102383.38;;;23.45
34125;BMP280;20110;53.120;5.786;2023-05-23T11:04:28;102383.88;;;23.90
34125;BMP280;20110;53.120;5.786;2023-05-23T11:06:55;102414.88;;;24.25
34125;BMP280;20110;53.120;5.786;2023-05-23T11:09:22;102439.03;;;24.41
34125;BMP280;20110;53.120;5.786;2023-05-23T11:14:31;102435.72;;;23.84
34125;BMP280;20110;53.120;5.786;2023-05-23T11:17:31;102421.88;;;23.90
34125;BMP280;20110;53.120;5.786;2023-05-23T11:20:06;102426.72;;;24.49
34125;BMP280;20110;53.120;5.786;2023-05-23T11:22:35;102424.81;;;24.71
34125;BMP280;20110;53.120;5.786;2023-05-23T11:25:07;102406.59;;;24.93
34125;BMP280;20110;53.120;5.786;2023-05-23T11:27:37;102438.06;;;25.48
34125;BMP280;20110;53.120;5.786;2023-05-23T11:30:08;102439.69;;;24.79
34125;BMP280;20110;53.120;5.786;2023-05-23T11:32:36;102430.16;;;24.40
34125;BMP280;20110;53.120;5.786;2023-05-23T11:35:08;102431.56;;;23.83
34125;BMP280;20110;53.120;5.786;2023-05-23T11:37:36;102433.03;;;24.32
34125;BMP280;20110;53.120;5.786;2023-05-23T11:40:35;102423.47;;;26.07
34125;BMP280;20110;53.120;5.786;2023-05-23T11:43:11;102446.94;;;25.91
34125;BMP280;20110;53.120;5.786;2023-05-23T11:45:39;102387.88;;;26.14
34125;BMP280;20110;53.120;5.786;2023-05-23T11:48:15;102439.38;;;26.90
34125;BMP280;20110;53.120;5.786;2023-05-23T11:50:53;102379.38;;;26.55
34125;BMP280;20110;53.120;5.786;2023-05-23T11:53:21;102410.44;;;26.50
34125;BMP280;20110;53.120;5.786;2023-05-23T11:55:54;102457.47;;;26.62
34125;BMP280;20110;53.120;5.786;2023-05-23T11:58:43;102443.28;;;26.98
34125;BMP280;20110;53.120;5.786;2023-05-23T12:01:11;102426.22;;;26.86
34125;BMP280;20110;53.120;5.786;2023-05-23T12:03:50;102425.22;;;26.24
34125;BMP280;20110;53.120;5.786;2023-05-23T12:06:20;102452.19;;;25.35
34125;BMP280;20110;53.120;5.786;2023-05-23T12:08:48;102435.31;;;25.05
34125;BMP280;20110;53.120;5.786;2023-05-23T12:11:14;102423.75;;;25.47
34125;BMP280;20110;53.120;5.786;2023-05-23T12:13:41;102438.66;;;25.15
34125;BMP280;20110;53.120;5.786;2023-05-23T12:16:08;102364.59;;;23.96
34125;BMP280;20110;53.120;5.786;2023-05-23T12:18:36;102433.16;;;24.54
34125;BMP280;20110;53.120;5.786;2023-05-23T12:21:03;102453.91;;;24.20
34125;BMP280;20110;53.120;5.786;2023-05-23T12:23:31;102444.47;;;25.31
34125;BMP280;20110;53.120;5.786;2023-05-23T12:25:57;102351.03;;;25.05
34125;BMP280;20110;53.120;5.786;2023-05-23T12:28:44;102470.81;;;25.59
34125;BMP280;20110;53.120;5.786;2023-05-23T12:31:24;102470.25;;;25.82
34125;BMP280;20110;53.120;5.786;2023-05-23T12:33:52;102462.34;;;25.34
34125;BMP280;20110;53.120;5.786;2023-05-23T12:36:24;102466.44;;;24.54
34125;BMP280;20110;53.120;5.786;2023-05-23T12:38:51;102441.34;;;25.25
34125;BMP280;20110;53.120;5.786;2023-05-23T12:41:19;102440.78;;;25.90
34125;BMP280;20110;53.120;5.786;2023-05-23T12:43:53;102482.53;;;25.31
34125;BMP280;20110;53.120;5.786;2023-05-23T12:46:21;102476.41;;;25.61
34125;BMP280;20110;53.120;5.786;2023-05-23T12:48:47;102479.59;;;26.12
34125;BMP280;20110;53.120;5.786;2023-05-23T12:51:14;102437.50;;;26.81
34125;BMP280;20110;53.120;5.786;2023-05-23T12:53:40;102435.94;;;27.01
34125;BMP280;20110;53.120;5.786;2023-05-23T12:56:06;102473.44;;;26.44
34125;BMP280;20110;53.120;5.786;2023-05-23T12:58:32;102454.22;;;25.77
34125;BMP280;20110;53.120;5.786;2023-05-23T13:01:01;102468.94;;;25.00
34125;BMP280;20110;53.120;5.786;2023-05-23T13:03:30;102453.88;;;24.49
34125;BMP280;20110;53.120;5.786;2023-05-23T13:05:58;102471.59;;;24.69
34125;BMP280;20110;53.120;5.786;2023-05-23T13:08:25;102457.75;;;24.46
34125;BMP280;20110;53.120;5.786;2023-05-23T13:10:55;102465.16;;;24.07
34125;BMP280;20110;53.120;5.786;2023-05-23T13:13:21;102472.00;;;23.89
34125;BMP280;20110;53.120;5.786;2023-05-23T13:15:48;102465.88;;;24.17
34125;BMP280;20110;53.120;5.786;2023-05-23T13:18:14;102460.06;;;24.11
34125;BMP280;20110;53.120;5.786;2023-05-23T13:20:40;102426.84;;;23.74
34125;BMP280;20110;53.120;5.786;2023-05-23T13:23:07;102478.34;;;24.30
34125;BMP280;20110;53.120;5.786;2023-05-23T13:25:35;102479.34;;;24.44
34125;BMP280;20110;53.120;5.786;2023-05-23T13:28:01;102470.31;;;24.51
34125;BMP280;20110;53.120;5.786;2023-05-23T13:30:28;102479.16;;;24.71
34125;BMP280;20110;53.120;5.786;2023-05-23T13:32:54;102469.03;;;24.33
34125;BMP280;20110;53.120;5.786;2023-05-23T13:35:20;102480.34;;;24.20
34125;BMP280;20110;53.120;5.786;2023-05-23T13:37:46;102406.50;;;23.46
34125;BMP280;20110;53.120;5.786;2023-05-23T13:40:16;102456.38;;;23.61
34125;BMP280;20110;53.120;5.786;2023-05-23T13:42:47;102472.53;;;23.68
34125;BMP280;20110;53.120;5.786;2023-05-23T13:45:15;102468.91;;;23.56
34125;BMP280;20110;53.120;5.786;2023-05-23T13:47:43;102468.41;;;23.77
34125;BMP280;20110;53.120;5.786;2023-05-23T13:50:09;102413.03;;;23.89
34125;BMP280;20110;53.120;5.786;2023-05-23T13:52:35;102479.59;;;24.38
34125;BMP280;20110;53.120;5.786;2023-05-23T13:55:03;102476.91;;;24.19
34125;BMP280;20110;53.120;5.786;2023-05-23T13:57:29;102479.28;;;23.86
34125;BMP280;20110;53.120;5.786;2023-05-23T13:59:55;102491.31;;;23.47
34125;BMP280;20110;53.120;5.786;2023-05-23T14:02:20;102442.59;;;23.03
34125;BMP280;20110;53.120;5.786;2023-05-23T14:04:48;102475.78;;;23.57
34125;BMP280;20110;53.120;5.786;2023-05-23T14:07:16;102431.97;;;23.70
34125;BMP280;20110;53.120;5.786;2023-05-23T14:09:42;102456.63;;;24.11
34125;BMP280;20110;53.120;5.786;2023-05-23T14:12:08;102498.63;;;24.19
34125;BMP280;20110;53.120;5.786;2023-05-23T14:14:34;102459.72;;;23.78
34125;BMP280;20110;53.120;5.786;2023-05-23T14:17:00;102474.84;;;23.81